sensor_id;sensor_type;location;lat;lon;timestamp;P1;durP1;ratioP1;P2;durP2;ratioP2
67751;SDS011;54551;51.068;5.826;2023-03-19T00:02:23;3.70;;;2.73;;
67751;SDS011;54551;51.068;5.826;2023-03-19T00:04:49;3.03;;;2.67;;
67751;SDS011;54551;51.068;5.826;2023-03-19T00:07:15;5.13;;;2.70;;
67751;SDS011;54551;51.068;5.826;2023-03-19T00:09:41;3.17;;;2.87;;
67751;SDS011;54551;51.068;5.826;2023-03-19T00:12:08;4.73;;;3.37;;
67751;SDS011;54551;51.068;5.826;2023-03-19T00:14:35;3.30;;;2.90;;
67751;SDS011;54551;51.068;5.826;2023-03-19T00:17:01;3.67;;;2.80;;
67751;SDS011;54551;51.068;5.826;2023-03-19T00:19:26;3.47;;;2.60;;
67751;SDS011;54551;51.068;5.826;2023-03-19T00:21:52;4.53;;;2.90;;
67751;SDS011;54551;51.068;5.826;2023-03-19T00:24:18;3.37;;;3.07;;
67751;SDS011;54551;51.068;5.826;2023-03-19T00:26:44;4.27;;;2.80;;
67751;SDS011;54551;51.068;5.826;2023-03-19T00:29:11;4.30;;;3.60;;
67751;SDS011;54551;51.068;5.826;2023-03-19T00:31:37;4.57;;;3.00;;
67751;SDS011;54551;51.068;5.826;2023-03-19T00:34:04;4.97;;;3.33;;
67751;SDS011;54551;51.068;5.826;2023-03-19T00:36:30;3.50;;;3.10;;
67751;SDS011;54551;51.068;5.826;2023-03-19T00:38:57;4.17;;;3.53;;
67751;SDS011;54551;51.068;5.826;2023-03-19T00:41:23;5.27;;;3.80;;
67751;SDS011;54551;51.068;5.826;2023-03-19T00:43:53;5.00;;;3.47;;
67751;SDS011;54551;51.068;5.826;2023-03-19T00:46:19;5.20;;;3.60;;
67751;SDS011;54551;51.068;5.826;2023-03-19T00:48:47;4.93;;;3.17;;
67751;SDS011;54551;51.068;5.826;2023-03-19T00:51:15;3.87;;;3.33;;
67751;SDS011;54551;51.068;5.826;2023-03-19T00:53:42;3.93;;;3.43;;
67751;SDS011;54551;51.068;5.826;2023-03-19T00:56:09;4.93;;;3.90;;
67751;SDS011;54551;51.068;5.826;2023-03-19T00:58:36;6.00;;;4.10;;
67751;SDS011;54551;51.068;5.826;2023-03-19T01:01:06;3.73;;;3.47;;
67751;SDS011;54551;51.068;5.826;2023-03-19T01:03:34;4.57;;;4.00;;
67751;SDS011;54551;51.068;5.826;2023-03-19T01:06:00;4.47;;;4.07;;
67751;SDS011;54551;51.068;5.826;2023-03-19T01:08:26;6.70;;;4.00;;
67751;SDS011;54551;51.068;5.826;2023-03-19T01:10:54;4.50;;;4.10;;
67751;SDS011;54551;51.068;5.826;2023-03-19T01:13:20;5.33;;;4.10;;
67751;SDS011;54551;51.068;5.826;2023-03-19T01:15:46;6.03;;;4.10;;
67751;SDS011;54551;51.068;5.826;2023-03-19T01:18:16;4.00;;;3.60;;
67751;SDS011;54551;51.068;5.826;2023-03-19T01:20:42;6.33;;;3.57;;
67751;SDS011;54551;51.068;5.826;2023-03-19T01:23:08;4.57;;;3.30;;
67751;SDS011;54551;51.068;5.826;2023-03-19T01:25:34;7.17;;;3.80;;
67751;SDS011;54551;51.068;5.826;2023-03-19T01:28:02;4.80;;;3.50;;
67751;SDS011;54551;51.068;5.826;2023-03-19T01:30:28;5.43;;;3.70;;
67751;SDS011;54551;51.068;5.826;2023-03-19T01:33:06;5.37;;;3.90;;
67751;SDS011;54551;51.068;5.826;2023-03-19T01:35:37;4.80;;;3.73;;
67751;SDS011;54551;51.068;5.826;2023-03-19T01:38:04;5.97;;;3.60;;
67751;SDS011;54551;51.068;5.826;2023-03-19T01:40:30;8.87;;;4.03;;
67751;SDS011;54551;51.068;5.826;2023-03-19T01:43:18;5.27;;;4.13;;
67751;SDS011;54551;51.068;5.826;2023-03-19T01:48:56;5.13;;;4.00;;
67751;SDS011;54551;51.068;5.826;2023-03-19T01:51:27;6.07;;;3.50;;
67751;SDS011;54551;51.068;5.826;2023-03-19T01:54:14;6.30;;;3.70;;
67751;SDS011;54551;51.068;5.826;2023-03-19T01:56:51;4.57;;;3.60;;
67751;SDS011;54551;51.068;5.826;2023-03-19T01:59:54;4.37;;;3.63;;
67751;SDS011;54551;51.068;5.826;2023-03-19T02:02:40;6.40;;;3.80;;
67751;SDS011;54551;51.068;5.826;2023-03-19T02:05:16;4.90;;;3.60;;
67751;SDS011;54551;51.068;5.826;2023-03-19T02:07:55;5.63;;;3.90;;
67751;SDS011;54551;51.068;5.826;2023-03-19T02:10:24;4.77;;;3.60;;
67751;SDS011;54551;51.068;5.826;2023-03-19T02:12:51;5.67;;;4.10;;
67751;SDS011;54551;51.068;5.826;2023-03-19T02:15:17;6.83;;;4.03;;
67751;SDS011;54551;51.068;5.826;2023-03-19T02:17:46;5.67;;;3.50;;
67751;SDS011;54551;51.068;5.826;2023-03-19T02:22:57;7.00;;;4.23;;
67751;SDS011;54551;51.068;5.826;2023-03-19T02:28:20;5.83;;;4.27;;
67751;SDS011;54551;51.068;5.826;2023-03-19T02:30:51;5.87;;;3.80;;
67751;SDS011;54551;51.068;5.826;2023-03-19T02:33:18;7.03;;;4.10;;
67751;SDS011;54551;51.068;5.826;2023-03-19T02:35:47;5.67;;;4.77;;
67751;SDS011;54551;51.068;5.826;2023-03-19T02:38:17;8.20;;;4.20;;
67751;SDS011;54551;51.068;5.826;2023-03-19T02:40:54;4.57;;;3.87;;
67751;SDS011;54551;51.068;5.826;2023-03-19T02:43:25;6.97;;;4.67;;
67751;SDS011;54551;51.068;5.826;2023-03-19T02:45:52;4.43;;;3.87;;
67751;SDS011;54551;51.068;5.826;2023-03-19T02:48:19;5.07;;;4.27;;
67751;SDS011;54551;51.068;5.826;2023-03-19T02:50:45;4.80;;;4.30;;
67751;SDS011;54551;51.068;5.826;2023-03-19T02:53:11;4.43;;;3.90;;
67751;SDS011;54551;51.068;5.826;2023-03-19T02:55:36;6.17;;;4.13;;
67751;SDS011;54551;51.068;5.826;2023-03-19T02:58:02;7.07;;;5.37;;
67751;SDS011;54551;51.068;5.826;2023-03-19T03:00:28;5.17;;;4.67;;
67751;SDS011;54551;51.068;5.826;2023-03-19T03:02:55;6.73;;;4.33;;
67751;SDS011;54551;51.068;5.826;2023-03-19T03:05:22;7.60;;;5.03;;
67751;SDS011;54551;51.068;5.826;2023-03-19T03:07:49;7.40;;;4.73;;
67751;SDS011;54551;51.068;5.826;2023-03-19T03:10:15;8.17;;;5.63;;
67751;SDS011;54551;51.068;5.826;2023-03-19T03:12:42;8.33;;;5.30;;
67751;SDS011;54551;51.068;5.826;2023-03-19T03:15:09;5.03;;;4.57;;
67751;SDS011;54551;51.068;5.826;2023-03-19T03:17:36;10.50;;;5.87;;
67751;SDS011;54551;51.068;5.826;2023-03-19T03:20:03;6.47;;;5.53;;
67751;SDS011;54551;51.068;5.826;2023-03-19T03:22:30;7.63;;;5.30;;
67751;SDS011;54551;51.068;5.826;2023-03-19T03:24:57;7.57;;;5.30;;
67751;SDS011;54551;51.068;5.826;2023-03-19T03:27:23;6.47;;;5.33;;
67751;SDS011;54551;51.068;5.826;2023-03-19T03:29:49;6.77;;;5.60;;
67751;SDS011;54551;51.068;5.826;2023-03-19T03:32:15;5.67;;;5.10;;
67751;SDS011;54551;51.068;5.826;2023-03-19T03:34:41;7.70;;;5.10;;
67751;SDS011;54551;51.068;5.826;2023-03-19T03:37:07;7.53;;;5.50;;
67751;SDS011;54551;51.068;5.826;2023-03-19T03:39:34;5.07;;;4.57;;
67751;SDS011;54551;51.068;5.826;2023-03-19T03:42:02;5.77;;;5.13;;
67751;SDS011;54551;51.068;5.826;2023-03-19T03:44:29;8.50;;;5.90;;
67751;SDS011;54551;51.068;5.826;2023-03-19T03:46:55;6.97;;;6.07;;
67751;SDS011;54551;51.068;5.826;2023-03-19T03:49:21;6.60;;;5.93;;
67751;SDS011;54551;51.068;5.826;2023-03-19T03:51:47;8.07;;;6.80;;
67751;SDS011;54551;51.068;5.826;2023-03-19T03:54:14;7.00;;;6.23;;
67751;SDS011;54551;51.068;5.826;2023-03-19T03:56:40;6.67;;;6.03;;
67751;SDS011;54551;51.068;5.826;2023-03-19T03:59:06;7.83;;;6.60;;
67751;SDS011;54551;51.068;5.826;2023-03-19T04:01:32;8.53;;;6.87;;
67751;SDS011;54551;51.068;5.826;2023-03-19T04:03:58;7.67;;;6.90;;
67751;SDS011;54551;51.068;5.826;2023-03-19T04:06:25;7.33;;;6.63;;
67751;SDS011;54551;51.068;5.826;2023-03-19T04:09:13;7.70;;;6.90;;
67751;SDS011;54551;51.068;5.826;2023-03-19T04:11:39;7.93;;;7.10;;
67751;SDS011;54551;51.068;5.826;2023-03-19T04:14:05;9.03;;;7.50;;
67751;SDS011;54551;51.068;5.826;2023-03-19T04:16:33;7.80;;;7.10;;
67751;SDS011;54551;51.068;5.826;2023-03-19T04:18:59;8.10;;;7.40;;
67751;SDS011;54551;51.068;5.826;2023-03-19T04:21:25;8.27;;;7.57;;
67751;SDS011;54551;51.068;5.826;2023-03-19T04:23:53;8.97;;;8.10;;
67751;SDS011;54551;51.068;5.826;2023-03-19T04:26:19;8.57;;;7.77;;
67751;SDS011;54551;51.068;5.826;2023-03-19T04:28:45;8.27;;;6.83;;
67751;SDS011;54551;51.068;5.826;2023-03-19T04:31:11;8.47;;;7.60;;
67751;SDS011;54551;51.068;5.826;2023-03-19T04:33:41;8.97;;;8.07;;
67751;SDS011;54551;51.068;5.826;2023-03-19T04:36:07;8.20;;;7.50;;
67751;SDS011;54551;51.068;5.826;2023-03-19T04:38:35;9.10;;;8.20;;
67751;SDS011;54551;51.068;5.826;2023-03-19T04:41:01;8.10;;;7.40;;
67751;SDS011;54551;51.068;5.826;2023-03-19T04:43:29;8.23;;;7.53;;
67751;SDS011;54551;51.068;5.826;2023-03-19T04:45:56;9.20;;;8.27;;
67751;SDS011;54551;51.068;5.826;2023-03-19T04:48:22;7.87;;;7.00;;
67751;SDS011;54551;51.068;5.826;2023-03-19T04:50:50;9.27;;;8.13;;
67751;SDS011;54551;51.068;5.826;2023-03-19T04:53:18;8.37;;;7.57;;
67751;SDS011;54551;51.068;5.826;2023-03-19T04:55:48;8.27;;;7.57;;
67751;SDS011;54551;51.068;5.826;2023-03-19T04:58:18;8.73;;;7.93;;
67751;SDS011;54551;51.068;5.826;2023-03-19T05:00:51;8.60;;;7.80;;
67751;SDS011;54551;51.068;5.826;2023-03-19T05:03:23;8.63;;;7.80;;
67751;SDS011;54551;51.068;5.826;2023-03-19T05:05:49;9.47;;;8.43;;
67751;SDS011;54551;51.068;5.826;2023-03-19T05:08:18;9.30;;;8.50;;
67751;SDS011;54551;51.068;5.826;2023-03-19T05:10:44;9.37;;;8.30;;
67751;SDS011;54551;51.068;5.826;2023-03-19T05:13:10;9.43;;;8.37;;
67751;SDS011;54551;51.068;5.826;2023-03-19T05:15:41;9.83;;;9.00;;
67751;SDS011;54551;51.068;5.826;2023-03-19T05:18:09;9.20;;;8.40;;
67751;SDS011;54551;51.068;5.826;2023-03-19T05:20:38;9.97;;;9.13;;
67751;SDS011;54551;51.068;5.826;2023-03-19T05:23:14;10.40;;;9.40;;
67751;SDS011;54551;51.068;5.826;2023-03-19T05:25:44;10.60;;;9.47;;
67751;SDS011;54551;51.068;5.826;2023-03-19T05:28:14;9.57;;;8.67;;
67751;SDS011;54551;51.068;5.826;2023-03-19T05:30:40;10.13;;;8.90;;
67751;SDS011;54551;51.068;5.826;2023-03-19T05:33:21;10.77;;;9.33;;
67751;SDS011;54551;51.068;5.826;2023-03-19T05:35:48;10.03;;;9.13;;
67751;SDS011;54551;51.068;5.826;2023-03-19T05:38:26;10.03;;;9.03;;
67751;SDS011;54551;51.068;5.826;2023-03-19T05:41:02;10.20;;;9.23;;
67751;SDS011;54551;51.068;5.826;2023-03-19T05:43:49;10.40;;;9.37;;
67751;SDS011;54551;51.068;5.826;2023-03-19T05:46:31;9.70;;;8.90;;
67751;SDS011;54551;51.068;5.826;2023-03-19T05:48:57;10.83;;;9.73;;
67751;SDS011;54551;51.068;5.826;2023-03-19T05:51:23;10.10;;;9.10;;
67751;SDS011;54551;51.068;5.826;2023-03-19T05:53:50;10.00;;;9.10;;
67751;SDS011;54551;51.068;5.826;2023-03-19T05:56:28;9.83;;;8.93;;
67751;SDS011;54551;51.068;5.826;2023-03-19T05:59:08;11.53;;;10.53;;
67751;SDS011;54551;51.068;5.826;2023-03-19T06:01:38;11.63;;;10.50;;
67751;SDS011;54551;51.068;5.826;2023-03-19T06:04:04;11.87;;;10.77;;
67751;SDS011;54551;51.068;5.826;2023-03-19T06:06:30;13.13;;;9.73;;
67751;SDS011;54551;51.068;5.826;2023-03-19T06:08:56;12.63;;;11.43;;
67751;SDS011;54551;51.068;5.826;2023-03-19T06:11:38;12.33;;;11.17;;
67751;SDS011;54551;51.068;5.826;2023-03-19T06:14:40;12.43;;;11.23;;
67751;SDS011;54551;51.068;5.826;2023-03-19T06:17:26;11.63;;;10.00;;
67751;SDS011;54551;51.068;5.826;2023-03-19T06:19:55;12.77;;;11.57;;
67751;SDS011;54551;51.068;5.826;2023-03-19T06:22:21;12.13;;;11.03;;
67751;SDS011;54551;51.068;5.826;2023-03-19T06:24:47;12.40;;;11.27;;
67751;SDS011;54551;51.068;5.826;2023-03-19T06:27:13;12.33;;;11.23;;
67751;SDS011;54551;51.068;5.826;2023-03-19T06:29:39;11.73;;;10.73;;
67751;SDS011;54551;51.068;5.826;2023-03-19T06:32:16;11.97;;;10.77;;
67751;SDS011;54551;51.068;5.826;2023-03-19T06:34:42;11.70;;;10.60;;
67751;SDS011;54551;51.068;5.826;2023-03-19T06:37:08;11.20;;;10.30;;
67751;SDS011;54551;51.068;5.826;2023-03-19T06:39:34;12.23;;;11.17;;
67751;SDS011;54551;51.068;5.826;2023-03-19T06:42:00;10.77;;;9.87;;
67751;SDS011;54551;51.068;5.826;2023-03-19T06:44:26;11.60;;;9.80;;
67751;SDS011;54551;51.068;5.826;2023-03-19T06:46:53;10.97;;;9.60;;
67751;SDS011;54551;51.068;5.826;2023-03-19T06:49:19;10.83;;;9.83;;
67751;SDS011;54551;51.068;5.826;2023-03-19T06:51:46;11.03;;;9.93;;
67751;SDS011;54551;51.068;5.826;2023-03-19T06:54:12;9.97;;;8.63;;
67751;SDS011;54551;51.068;5.826;2023-03-19T06:56:37;9.13;;;8.23;;
67751;SDS011;54551;51.068;5.826;2023-03-19T06:59:03;12.47;;;8.60;;
67751;SDS011;54551;51.068;5.826;2023-03-19T07:01:29;8.60;;;7.83;;
67751;SDS011;54551;51.068;5.826;2023-03-19T07:03:55;8.73;;;7.90;;
67751;SDS011;54551;51.068;5.826;2023-03-19T07:06:21;8.50;;;7.80;;
67751;SDS011;54551;51.068;5.826;2023-03-19T07:08:47;8.37;;;7.67;;
67751;SDS011;54551;51.068;5.826;2023-03-19T07:11:13;8.30;;;7.50;;
67751;SDS011;54551;51.068;5.826;2023-03-19T07:13:40;8.70;;;7.97;;
67751;SDS011;54551;51.068;5.826;2023-03-19T07:16:07;8.83;;;8.03;;
67751;SDS011;54551;51.068;5.826;2023-03-19T07:18:33;9.80;;;8.63;;
67751;SDS011;54551;51.068;5.826;2023-03-19T07:20:59;8.50;;;7.70;;
67751;SDS011;54551;51.068;5.826;2023-03-19T07:23:25;8.70;;;7.80;;
67751;SDS011;54551;51.068;5.826;2023-03-19T07:25:51;9.37;;;8.47;;
67751;SDS011;54551;51.068;5.826;2023-03-19T07:28:17;10.37;;;9.40;;
67751;SDS011;54551;51.068;5.826;2023-03-19T07:30:42;9.40;;;8.50;;
67751;SDS011;54551;51.068;5.826;2023-03-19T07:33:08;10.30;;;9.40;;
67751;SDS011;54551;51.068;5.826;2023-03-19T07:35:35;9.97;;;9.07;;
67751;SDS011;54551;51.068;5.826;2023-03-19T07:38:01;10.07;;;9.27;;
67751;SDS011;54551;51.068;5.826;2023-03-19T07:40:27;9.80;;;9.00;;
67751;SDS011;54551;51.068;5.826;2023-03-19T07:42:53;10.93;;;9.93;;
67751;SDS011;54551;51.068;5.826;2023-03-19T07:45:19;10.70;;;9.60;;
67751;SDS011;54551;51.068;5.826;2023-03-19T07:47:45;11.23;;;10.13;;
67751;SDS011;54551;51.068;5.826;2023-03-19T07:50:13;11.17;;;10.17;;
67751;SDS011;54551;51.068;5.826;2023-03-19T07:52:39;11.27;;;9.97;;
67751;SDS011;54551;51.068;5.826;2023-03-19T07:55:05;10.57;;;9.67;;
67751;SDS011;54551;51.068;5.826;2023-03-19T07:57:31;10.20;;;9.37;;
67751;SDS011;54551;51.068;5.826;2023-03-19T07:59:57;11.80;;;10.60;;
67751;SDS011;54551;51.068;5.826;2023-03-19T08:02:23;11.60;;;10.33;;
67751;SDS011;54551;51.068;5.826;2023-03-19T08:04:49;11.57;;;10.37;;
67751;SDS011;54551;51.068;5.826;2023-03-19T08:07:15;11.10;;;10.10;;
67751;SDS011;54551;51.068;5.826;2023-03-19T08:09:41;10.70;;;9.20;;
67751;SDS011;54551;51.068;5.826;2023-03-19T08:12:07;10.03;;;9.10;;
67751;SDS011;54551;51.068;5.826;2023-03-19T08:14:34;10.60;;;9.50;;
67751;SDS011;54551;51.068;5.826;2023-03-19T08:17:00;10.40;;;9.37;;
67751;SDS011;54551;51.068;5.826;2023-03-19T08:19:26;11.60;;;9.03;;
67751;SDS011;54551;51.068;5.826;2023-03-19T08:21:52;9.10;;;8.30;;
67751;SDS011;54551;51.068;5.826;2023-03-19T08:24:18;8.57;;;7.77;;
67751;SDS011;54551;51.068;5.826;2023-03-19T08:26:44;7.60;;;7.00;;
67751;SDS011;54551;51.068;5.826;2023-03-19T08:29:10;6.97;;;6.40;;
67751;SDS011;54551;51.068;5.826;2023-03-19T08:31:36;6.33;;;5.73;;
67751;SDS011;54551;51.068;5.826;2023-03-19T08:34:03;5.93;;;5.43;;
67751;SDS011;54551;51.068;5.826;2023-03-19T08:36:29;6.60;;;6.03;;
67751;SDS011;54551;51.068;5.826;2023-03-19T08:38:56;6.37;;;5.77;;
67751;SDS011;54551;51.068;5.826;2023-03-19T08:41:23;6.60;;;6.10;;
67751;SDS011;54551;51.068;5.826;2023-03-19T08:43:49;6.87;;;6.33;;
67751;SDS011;54551;51.068;5.826;2023-03-19T08:46:15;7.10;;;6.60;;
67751;SDS011;54551;51.068;5.826;2023-03-19T08:48:42;7.47;;;6.87;;
67751;SDS011;54551;51.068;5.826;2023-03-19T08:51:08;9.23;;;8.00;;
67751;SDS011;54551;51.068;5.826;2023-03-19T08:53:35;7.50;;;6.90;;
67751;SDS011;54551;51.068;5.826;2023-03-19T08:56:03;6.77;;;6.27;;
67751;SDS011;54551;51.068;5.826;2023-03-19T08:58:32;5.90;;;5.47;;
67751;SDS011;54551;51.068;5.826;2023-03-19T09:01:03;5.37;;;4.87;;
67751;SDS011;54551;51.068;5.826;2023-03-19T09:03:33;5.53;;;5.03;;
67751;SDS011;54551;51.068;5.826;2023-03-19T09:05:59;5.73;;;5.23;;
67751;SDS011;54551;51.068;5.826;2023-03-19T09:08:26;5.03;;;4.53;;
67751;SDS011;54551;51.068;5.826;2023-03-19T09:10:53;4.83;;;4.43;;
67751;SDS011;54551;51.068;5.826;2023-03-19T09:13:19;4.43;;;3.77;;
67751;SDS011;54551;51.068;5.826;2023-03-19T09:15:46;4.30;;;4.00;;
67751;SDS011;54551;51.068;5.826;2023-03-19T09:18:12;4.43;;;3.80;;
67751;SDS011;54551;51.068;5.826;2023-03-19T09:20:37;4.07;;;3.30;;
67751;SDS011;54551;51.068;5.826;2023-03-19T09:23:03;4.47;;;3.03;;
67751;SDS011;54551;51.068;5.826;2023-03-19T09:25:29;3.22;;;2.90;;
67751;SDS011;54551;51.068;5.826;2023-03-19T09:27:55;3.58;;;3.28;;
67751;SDS011;54551;51.068;5.826;2023-03-19T09:30:21;3.92;;;3.00;;
67751;SDS011;54551;51.068;5.826;2023-03-19T09:32:47;3.77;;;3.23;;
67751;SDS011;54551;51.068;5.826;2023-03-19T09:35:13;3.60;;;3.30;;
67751;SDS011;54551;51.068;5.826;2023-03-19T09:37:40;3.63;;;2.93;;
67751;SDS011;54551;51.068;5.826;2023-03-19T09:40:06;3.90;;;3.50;;
67751;SDS011;54551;51.068;5.826;2023-03-19T09:45:14;3.10;;;2.83;;
67751;SDS011;54551;51.068;5.826;2023-03-19T09:47:42;2.90;;;2.70;;
67751;SDS011;54551;51.068;5.826;2023-03-19T09:50:22;3.60;;;3.30;;
67751;SDS011;54551;51.068;5.826;2023-03-19T09:55:39;2.88;;;2.45;;
67751;SDS011;54551;51.068;5.826;2023-03-19T09:58:12;2.53;;;2.20;;
67751;SDS011;54551;51.068;5.826;2023-03-19T10:00:41;3.70;;;3.30;;
67751;SDS011;54551;51.068;5.826;2023-03-19T10:08:36;3.75;;;3.10;;
67751;SDS011;54551;51.068;5.826;2023-03-19T10:16:41;3.33;;;3.03;;
67751;SDS011;54551;51.068;5.826;2023-03-19T10:19:12;3.15;;;2.72;;
67751;SDS011;54551;51.068;5.826;2023-03-19T10:21:44;3.15;;;2.88;;
67751;SDS011;54551;51.068;5.826;2023-03-19T10:24:25;3.50;;;2.83;;
67751;SDS011;54551;51.068;5.826;2023-03-19T10:27:16;4.47;;;2.87;;
67751;SDS011;54551;51.068;5.826;2023-03-19T10:29:43;5.67;;;3.33;;
67751;SDS011;54551;51.068;5.826;2023-03-19T10:35:18;4.63;;;2.97;;
67751;SDS011;54551;51.068;5.826;2023-03-19T10:37:47;3.10;;;2.80;;
67751;SDS011;54551;51.068;5.826;2023-03-19T10:40:23;3.40;;;3.10;;
67751;SDS011;54551;51.068;5.826;2023-03-19T10:43:05;3.30;;;3.10;;
67751;SDS011;54551;51.068;5.826;2023-03-19T10:45:45;3.87;;;3.30;;
67751;SDS011;54551;51.068;5.826;2023-03-19T10:48:15;5.40;;;3.50;;
67751;SDS011;54551;51.068;5.826;2023-03-19T10:55:45;4.90;;;4.27;;
67751;SDS011;54551;51.068;5.826;2023-03-19T10:58:26;4.23;;;3.83;;
67751;SDS011;54551;51.068;5.826;2023-03-19T11:00:57;5.27;;;4.60;;
67751;SDS011;54551;51.068;5.826;2023-03-19T11:03:33;4.77;;;4.27;;
67751;SDS011;54551;51.068;5.826;2023-03-19T11:06:08;6.63;;;4.70;;
67751;SDS011;54551;51.068;5.826;2023-03-19T11:09:00;5.90;;;5.33;;
67751;SDS011;54551;51.068;5.826;2023-03-19T11:11:42;6.00;;;5.40;;
67751;SDS011;54551;51.068;5.826;2023-03-19T11:16:47;6.50;;;5.90;;
67751;SDS011;54551;51.068;5.826;2023-03-19T11:19:26;6.20;;;5.70;;
67751;SDS011;54551;51.068;5.826;2023-03-19T11:22:15;7.57;;;6.87;;
67751;SDS011;54551;51.068;5.826;2023-03-19T11:24:50;7.37;;;6.60;;
67751;SDS011;54551;51.068;5.826;2023-03-19T11:27:17;7.00;;;6.30;;
67751;SDS011;54551;51.068;5.826;2023-03-19T11:29:50;6.27;;;5.67;;
67751;SDS011;54551;51.068;5.826;2023-03-19T11:32:20;7.13;;;6.43;;
67751;SDS011;54551;51.068;5.826;2023-03-19T11:34:58;6.70;;;6.10;;
67751;SDS011;54551;51.068;5.826;2023-03-19T11:37:51;5.23;;;4.83;;
67751;SDS011;54551;51.068;5.826;2023-03-19T11:40:30;6.30;;;5.80;;
67751;SDS011;54551;51.068;5.826;2023-03-19T11:43:26;7.03;;;6.47;;
67751;SDS011;54551;51.068;5.826;2023-03-19T11:49:03;7.83;;;7.07;;
67751;SDS011;54551;51.068;5.826;2023-03-19T11:51:50;7.17;;;6.57;;
67751;SDS011;54551;51.068;5.826;2023-03-19T12:05:31;4.40;;;4.00;;
67751;SDS011;54551;51.068;5.826;2023-03-19T12:13:17;4.80;;;4.40;;
67751;SDS011;54551;51.068;5.826;2023-03-19T12:15:53;5.80;;;5.20;;
67751;SDS011;54551;51.068;5.826;2023-03-19T12:35:28;4.97;;;4.47;;
67751;SDS011;54551;51.068;5.826;2023-03-19T12:38:02;5.03;;;4.20;;
67751;SDS011;54551;51.068;5.826;2023-03-19T12:40:46;3.73;;;3.43;;
67751;SDS011;54551;51.068;5.826;2023-03-19T12:43:17;4.63;;;4.25;;
67751;SDS011;54551;51.068;5.826;2023-03-19T12:46:09;4.43;;;4.13;;
67751;SDS011;54551;51.068;5.826;2023-03-19T12:49:13;4.47;;;4.10;;
67751;SDS011;54551;51.068;5.826;2023-03-19T12:51:53;4.27;;;3.87;;
67751;SDS011;54551;51.068;5.826;2023-03-19T12:54:30;4.90;;;4.47;;
67751;SDS011;54551;51.068;5.826;2023-03-19T12:57:03;5.83;;;5.20;;
67751;SDS011;54551;51.068;5.826;2023-03-19T12:59:32;6.10;;;5.50;;
67751;SDS011;54551;51.068;5.826;2023-03-19T13:07:59;7.50;;;6.80;;
67751;SDS011;54551;51.068;5.826;2023-03-19T13:10:33;6.57;;;5.70;;
67751;SDS011;54551;51.068;5.826;2023-03-19T13:13:00;6.30;;;5.37;;
67751;SDS011;54551;51.068;5.826;2023-03-19T13:15:53;6.50;;;5.40;;
67751;SDS011;54551;51.068;5.826;2023-03-19T13:21:25;5.93;;;5.33;;
67751;SDS011;54551;51.068;5.826;2023-03-19T13:24:27;5.30;;;4.80;;
67751;SDS011;54551;51.068;5.826;2023-03-19T13:26:50;5.60;;;4.20;;
67751;SDS011;54551;51.068;5.826;2023-03-19T13:29:20;5.23;;;4.77;;
67751;SDS011;54551;51.068;5.826;2023-03-19T13:31:50;5.03;;;4.53;;
67751;SDS011;54551;51.068;5.826;2023-03-19T13:34:19;5.50;;;4.50;;
67751;SDS011;54551;51.068;5.826;2023-03-19T13:36:52;4.93;;;4.30;;
67751;SDS011;54551;51.068;5.826;2023-03-19T13:39:26;4.70;;;4.17;;
67751;SDS011;54551;51.068;5.826;2023-03-19T13:42:21;4.17;;;3.50;;
67751;SDS011;54551;51.068;5.826;2023-03-19T13:45:01;3.60;;;3.30;;
67751;SDS011;54551;51.068;5.826;2023-03-19T13:52:41;4.13;;;3.23;;
67751;SDS011;54551;51.068;5.826;2023-03-19T13:55:33;3.27;;;2.97;;
67751;SDS011;54551;51.068;5.826;2023-03-19T13:58:18;5.13;;;3.10;;
67751;SDS011;54551;51.068;5.826;2023-03-19T14:03:55;3.60;;;2.67;;
67751;SDS011;54551;51.068;5.826;2023-03-19T14:09:04;3.03;;;2.67;;
67751;SDS011;54551;51.068;5.826;2023-03-19T14:11:52;3.33;;;2.70;;
67751;SDS011;54551;51.068;5.826;2023-03-19T14:14:19;4.07;;;2.60;;
67751;SDS011;54551;51.068;5.826;2023-03-19T14:16:48;4.37;;;2.77;;
67751;SDS011;54551;51.068;5.826;2023-03-19T14:19:17;2.67;;;2.00;;
67751;SDS011;54551;51.068;5.826;2023-03-19T14:27:00;3.23;;;2.47;;
67751;SDS011;54551;51.068;5.826;2023-03-19T14:29:27;2.87;;;2.10;;
67751;SDS011;54551;51.068;5.826;2023-03-19T14:31:58;2.63;;;1.87;;
67751;SDS011;54551;51.068;5.826;2023-03-19T14:34:34;2.73;;;1.80;;
67751;SDS011;54551;51.068;5.826;2023-03-19T14:39:57;2.33;;;1.97;;
67751;SDS011;54551;51.068;5.826;2023-03-19T14:42:41;3.67;;;2.00;;
67751;SDS011;54551;51.068;5.826;2023-03-19T14:45:29;3.90;;;1.77;;
67751;SDS011;54551;51.068;5.826;2023-03-19T14:56:22;2.83;;;1.70;;
67751;SDS011;54551;51.068;5.826;2023-03-19T14:58:55;3.23;;;1.70;;
67751;SDS011;54551;51.068;5.826;2023-03-19T15:01:22;5.03;;;2.30;;
67751;SDS011;54551;51.068;5.826;2023-03-19T15:04:00;3.20;;;2.10;;
67751;SDS011;54551;51.068;5.826;2023-03-19T15:06:33;4.47;;;2.10;;
67751;SDS011;54551;51.068;5.826;2023-03-19T15:09:04;3.33;;;2.00;;
67751;SDS011;54551;51.068;5.826;2023-03-19T15:12:12;4.00;;;1.90;;
67751;SDS011;54551;51.068;5.826;2023-03-19T15:15:07;2.60;;;1.80;;
67751;SDS011;54551;51.068;5.826;2023-03-19T15:17:59;3.70;;;1.90;;
67751;SDS011;54551;51.068;5.826;2023-03-19T15:20:30;3.17;;;1.93;;
67751;SDS011;54551;51.068;5.826;2023-03-19T15:23:01;3.57;;;1.97;;
67751;SDS011;54551;51.068;5.826;2023-03-19T15:25:30;3.20;;;2.03;;
67751;SDS011;54551;51.068;5.826;2023-03-19T15:28:07;4.47;;;2.33;;
67751;SDS011;54551;51.068;5.826;2023-03-19T15:30:35;4.50;;;2.00;;
67751;SDS011;54551;51.068;5.826;2023-03-19T15:33:01;3.27;;;2.10;;
67751;SDS011;54551;51.068;5.826;2023-03-19T15:35:28;5.87;;;2.77;;
67751;SDS011;54551;51.068;5.826;2023-03-19T15:37:58;3.77;;;2.20;;
67751;SDS011;54551;51.068;5.826;2023-03-19T15:40:27;5.50;;;2.43;;
67751;SDS011;54551;51.068;5.826;2023-03-19T15:42:56;6.20;;;2.53;;
67751;SDS011;54551;51.068;5.826;2023-03-19T15:45:25;5.83;;;2.67;;
67751;SDS011;54551;51.068;5.826;2023-03-19T15:48:53;5.17;;;2.40;;
67751;SDS011;54551;51.068;5.826;2023-03-19T15:50:54;6.13;;;3.00;;
67751;SDS011;54551;51.068;5.826;2023-03-19T15:53:27;7.67;;;3.13;;
67751;SDS011;54551;51.068;5.826;2023-03-19T15:55:56;6.13;;;3.30;;
67751;SDS011;54551;51.068;5.826;2023-03-19T15:58:23;8.13;;;2.93;;
67751;SDS011;54551;51.068;5.826;2023-03-19T16:00:52;6.27;;;3.33;;
67751;SDS011;54551;51.068;5.826;2023-03-19T16:03:31;6.33;;;3.03;;
67751;SDS011;54551;51.068;5.826;2023-03-19T16:06:06;5.57;;;3.13;;
67751;SDS011;54551;51.068;5.826;2023-03-19T16:08:44;5.30;;;3.43;;
67751;SDS011;54551;51.068;5.826;2023-03-19T16:11:25;5.17;;;3.37;;
67751;SDS011;54551;51.068;5.826;2023-03-19T16:14:00;6.57;;;3.90;;
67751;SDS011;54551;51.068;5.826;2023-03-19T16:16:34;11.93;;;7.27;;
67751;SDS011;54551;51.068;5.826;2023-03-19T16:19:02;19.93;;;17.23;;
67751;SDS011;54551;51.068;5.826;2023-03-19T16:21:34;12.33;;;11.13;;
67751;SDS011;54551;51.068;5.826;2023-03-19T16:26:41;7.03;;;3.20;;
67751;SDS011;54551;51.068;5.826;2023-03-19T16:31:50;8.47;;;4.63;;
67751;SDS011;54551;51.068;5.826;2023-03-19T16:34:49;6.13;;;3.77;;
67751;SDS011;54551;51.068;5.826;2023-03-19T16:37:30;9.03;;;4.37;;
67751;SDS011;54551;51.068;5.826;2023-03-19T16:47:50;6.57;;;3.87;;
67751;SDS011;54551;51.068;5.826;2023-03-19T16:50:22;7.97;;;4.17;;
67751;SDS011;54551;51.068;5.826;2023-03-19T16:52:56;12.77;;;4.43;;
67751;SDS011;54551;51.068;5.826;2023-03-19T16:55:31;6.10;;;3.80;;
67751;SDS011;54551;51.068;5.826;2023-03-19T16:58:01;7.17;;;3.63;;
67751;SDS011;54551;51.068;5.826;2023-03-19T17:00:27;5.63;;;2.93;;
67751;SDS011;54551;51.068;5.826;2023-03-19T17:02:55;6.73;;;3.27;;
67751;SDS011;54551;51.068;5.826;2023-03-19T17:05:22;9.93;;;3.93;;
67751;SDS011;54551;51.068;5.826;2023-03-19T17:07:49;5.97;;;3.10;;
67751;SDS011;54551;51.068;5.826;2023-03-19T17:10:17;5.97;;;3.40;;